Time;durP1;ratioP1;P1;durP2;ratioP2;P2;SDS_P1;SDS_P2;PMS_P1;PMS_P2;Temp;Humidity;BMP_temperature;BMP_pressure;BME280_temperature;BME280_humidity;BME280_pressure;Samples;Min_cycle;Max_cycle;Signal;HPM_P1;HPM_P2
2022/01/24 00:00:52;;;;;;;11.53;8.27;;;;;;;;;;5092147;28;20286;-79
2022/01/24 00:03:19;;;;;;;11.50;8.55;;;;;;;;;;5075779;28;20286;-79
2022/01/24 00:05:45;;;;;;;10.27;8.37;;;;;;;;;;5093007;28;20044;-79
2022/01/24 00:08:11;;;;;;;11.57;8.30;;;;;;;;;;5093331;28;20329;-79
2022/01/24 00:10:39;;;;;;;9.70;7.90;;;;;;;;;;5093264;28;20695;-79
2022/01/24 00:13:36;;;;;;;11.40;7.67;;;;;;;;;;5091910;28;20301;-79
2022/01/24 00:26:42;;;;;;;9.83;7.50;;;;;;;;;;5092266;28;20282;-79
2022/01/24 00:26:51;;;;;;;9.45;6.70;;;;;;;;;;5092009;28;20052;-79
2022/01/24 00:29:19;;;;;;;9.10;6.93;;;;;;;;;;5092124;28;20087;-79
2022/01/24 00:31:46;;;;;;;9.40;7.43;;;;;;;;;;5091706;28;20298;-79
2022/01/24 00:34:13;;;;;;;8.67;6.17;;;;;;;;;;5092903;28;20389;-79
2022/01/24 00:36:40;;;;;;;9.13;7.10;;;;;;;;;;5092957;28;20282;-79
2022/01/24 00:39:06;;;;;;;9.17;6.67;;;;;;;;;;5092573;28;20290;-79
2022/01/24 00:41:40;;;;;;;9.90;7.03;;;;;;;;;;5091792;28;20278;-77
2022/01/24 00:46:46;;;;;;;9.33;6.13;;;;;;;;;;5093052;28;20314;-79
2022/01/24 00:49:36;;;;;;;8.60;6.20;;;;;;;;;;5093246;28;20282;-79
2022/01/24 00:54:52;;;;;;;;;;;;;;;;;;5092958;28;20389;-79
2022/01/24 00:57:18;;;;;;;10.03;5.67;;;;;;;;;;5092848;28;19934;-78
2022/01/24 00:59:44;;;;;;;9.27;6.37;;;;;;;;;;5092575;28;20732;-83
2022/01/24 01:02:10;;;;;;;9.30;6.20;;;;;;;;;;5075085;28;20278;-79
2022/01/24 01:05:07;;;;;;;8.23;6.32;;;;;;;;;;5092744;28;20040;-78
2022/01/24 01:07:36;;;;;;;8.10;5.65;;;;;;;;;;5091063;28;20087;-78
2022/01/24 01:18:18;;;;;;;7.15;5.75;;;;;;;;;;5096853;28;20052;-78
2022/01/24 01:23:29;;;;;;;8.17;5.30;;;;;;;;;;5095548;28;20063;-78
2022/01/24 01:25:56;;;;;;;7.13;5.05;;;;;;;;;;5096021;28;20292;-79
2022/01/24 01:28:24;;;;;;;7.87;5.33;;;;;;;;;;5094881;28;20461;-78
2022/01/24 01:30:53;;;;;;;7.05;4.88;;;;;;;;;;5095631;28;20796;-79
2022/01/24 01:36:15;;;;;;;6.87;4.80;;;;;;;;;;5095831;28;20098;-79
2022/01/24 01:53:06;;;;;;;7.50;5.10;;;;;;;;;;5095950;28;20047;-78
2022/01/24 01:55:40;;;;;;;8.07;5.60;;;;;;;;;;5095393;28;20051;-78
2022/01/24 01:58:07;;;;;;;7.00;4.60;;;;;;;;;;5095509;28;20044;-79
2022/01/24 02:00:33;;;;;;;7.40;4.50;;;;;;;;;;5095914;28;20117;-79
2022/01/24 02:03:00;;;;;;;8.52;5.28;;;;;;;;;;5094280;28;20052;-79
2022/01/24 02:05:26;;;;;;;8.07;5.07;;;;;;;;;;5077777;28;20130;-79
2022/01/24 02:07:53;;;;;;;7.25;4.70;;;;;;;;;;5094265;28;20336;-79
2022/01/24 02:10:20;;;;;;;6.90;4.60;;;;;;;;;;5094479;28;20048;-78
2022/01/24 02:12:48;;;;;;;7.33;4.83;;;;;;;;;;5095517;28;20056;-78
2022/01/24 02:15:20;;;;;;;6.40;4.57;;;;;;;;;;5095097;28;20298;-78
2022/01/24 02:23:35;;;;;;;8.20;5.25;;;6.40;99.90;;;;;;5094970;28;20044;-79
2022/01/24 02:26:05;;;;;;;7.87;5.03;;;6.30;99.90;;;;;;5094971;28;20047;-78
2022/01/24 02:28:44;;;;;;;7.40;4.90;;;6.30;99.90;;;;;;5095089;28;20326;-78
2022/01/24 02:33:47;;;;;;;6.78;4.50;;;6.30;99.90;;;;;;5095181;28;20733;-78
2022/01/24 02:36:24;;;;;;;7.50;5.45;;;6.30;99.90;;;;;;5094691;28;20044;-78
2022/01/24 02:49:30;;;;;;;9.43;5.60;;;6.20;99.90;;;;;;5094006;28;20150;-78
2022/01/24 02:52:06;;;;;;;8.35;5.80;;;6.20;99.90;;;;;;5093470;28;20289;-78
2022/01/24 02:54:33;;;;;;;8.88;5.68;;;6.20;99.90;;;;;;5094595;28;20149;-78
2022/01/24 02:57:00;;;;;;;8.98;6.03;;;6.20;99.90;;;;;;5094576;28;20040;-79
2022/01/24 02:59:28;;;;;;;9.20;5.93;;;6.20;99.90;;;;;;5093508;28;20048;-78
2022/01/24 03:01:54;;;;;;;10.13;6.32;;;6.20;99.90;;;;;;5094567;28;20318;-79
2022/01/24 03:04:20;;;;;;;8.65;6.88;;;6.20;99.90;;;;;;5094225;28;20044;-79
2022/01/24 03:06:46;;;;;;;7.95;5.70;;;6.30;99.90;;;;;;5093531;28;20040;-78
2022/01/24 03:09:13;;;;;;;10.13;6.75;;;6.20;99.90;;;;;;5094115;28;20044;-79
2022/01/24 03:14:27;;;;;;;6.85;4.80;;;6.20;99.90;;;;;;5094216;28;20048;-78
2022/01/24 03:16:54;;;;;;;9.00;6.60;;;6.20;99.90;;;;;;5094320;28;20051;-78
2022/01/24 03:19:20;;;;;;;8.80;5.93;;;6.20;99.90;;;;;;5093858;28;20122;-79
2022/01/24 03:21:45;;;;;;;8.33;6.33;;;6.30;99.90;;;;;;5093178;28;20128;-78
2022/01/24 03:24:12;;;;;;;9.30;7.07;;;6.20;99.90;;;;;;5092757;28;20048;-79
2022/01/24 03:26:38;;;;;;;8.80;6.83;;;6.20;99.90;;;;;;5094022;28;20052;-78
2022/01/24 03:29:05;;;;;;;8.63;6.80;;;6.20;99.90;;;;;;5093645;28;20369;-79
2022/01/24 03:31:31;;;;;;;9.73;7.73;;;6.20;99.90;;;;;;5092964;28;20063;-79
2022/01/24 03:33:57;;;;;;;10.20;7.40;;;6.20;99.90;;;;;;5093096;28;20344;-78
2022/01/24 03:36:23;;;;;;;10.43;7.23;;;6.20;99.90;;;;;;5092527;28;20075;-79
2022/01/24 03:38:48;;;;;;;11.03;7.70;;;6.20;99.90;;;;;;5092605;28;20506;-79
2022/01/24 03:41:14;;;;;;;9.90;7.37;;;6.20;99.90;;;;;;5092266;28;20050;-79
2022/01/24 03:43:40;;;;;;;10.50;7.93;;;6.20;99.90;;;;;;5093311;28;20442;-79
2022/01/24 03:48:45;;;;;;;11.23;7.40;;;6.20;99.90;;;;;;5092799;28;20442;-78
2022/01/24 03:51:12;;;;;;;9.93;8.07;;;6.20;99.90;;;;;;5093364;28;20056;-78
2022/01/24 03:53:39;;;;;;;9.48;7.15;;;6.20;99.90;;;;;;5093652;28;20036;-79
2022/01/24 03:56:06;;;;;;;9.73;7.43;;;6.10;99.90;;;;;;5092156;28;20136;-79
2022/01/24 03:58:32;;;;;;;10.07;7.70;;;6.10;99.90;;;;;;5092485;28;20050;-78
2022/01/24 04:00:59;;;;;;;11.57;7.53;;;6.20;99.90;;;;;;5092541;28;20403;-78
2022/01/24 04:03:25;;;;;;;10.73;7.68;;;6.10;99.90;;;;;;5093129;28;20306;-78
2022/01/24 04:05:51;;;;;;;12.15;8.40;;;6.10;99.90;;;;;;5093406;28;20467;-78
2022/01/24 04:08:17;;;;;;;10.70;7.77;;;6.10;99.90;;;;;;5093109;28;20123;-78
2022/01/24 04:10:50;;;;;;;11.55;8.45;;;6.10;99.90;;;;;;5092303;28;20097;-78
2022/01/24 04:13:33;;;;;;;11.10;8.23;;;6.10;99.90;;;;;;5091667;28;20048;-79
2022/01/24 04:16:22;;;;;;;11.30;8.65;;;6.10;99.90;;;;;;5093289;28;20044;-78
2022/01/24 04:18:54;;;;;;;11.73;8.55;;;6.10;99.90;;;;;;5092868;28;20052;-79
2022/01/24 04:21:31;;;;;;;10.37;8.03;;;6.10;99.90;;;;;;5093036;28;20106;-78
2022/01/24 04:24:11;;;;;;;11.32;8.23;;;6.10;99.90;;;;;;5092261;28;20117;-78
2022/01/24 04:26:38;;;;;;;12.93;8.23;;;6.10;99.90;;;;;;5093462;28;20052;-78
2022/01/24 04:29:06;;;;;;;11.75;8.75;;;6.10;99.90;;;;;;5092951;28;20044;-84
2022/01/24 04:31:32;;;;;;;13.10;8.88;;;6.10;99.90;;;;;;5093325;28;20052;-78
2022/01/24 04:33:59;;;;;;;11.32;9.10;;;6.10;99.90;;;;;;5091959;28;20086;-78
2022/01/24 04:36:25;;;;;;;11.13;8.57;;;6.10;99.90;;;;;;5092743;28;20055;-78
2022/01/24 04:38:52;;;;;;;11.82;8.55;;;6.10;99.90;;;;;;5093222;28;20052;-78
2022/01/24 04:41:32;;;;;;;11.20;7.60;;;6.10;99.90;;;;;;5092584;28;20535;-78
2022/01/24 04:54:39;;;;;;;10.68;8.30;;;6.10;99.90;;;;;;5096661;28;20135;-78
2022/01/24 04:57:07;;;;;;;9.43;7.60;;;6.00;99.90;;;;;;5097034;28;20446;-78
2022/01/24 04:59:33;;;;;;;12.80;8.93;;;6.10;99.90;;;;;;5078964;28;20062;-78
2022/01/24 05:01:59;;;;;;;10.60;8.57;;;6.10;99.90;;;;;;5095888;28;20480;-78
2022/01/24 05:04:25;;;;;;;10.80;7.97;;;6.20;99.90;;;;;;5095607;28;20059;-78
2022/01/24 05:06:51;;;;;;;13.67;8.60;;;6.10;99.90;;;;;;5078856;28;20056;-78
2022/01/24 05:09:18;;;;;;;11.37;8.13;;;6.10;99.90;;;;;;5096373;28;20514;-78
2022/01/24 05:11:55;;;;;;;10.82;8.25;;;6.10;99.90;;;;;;5095571;28;20141;-78
2022/01/24 05:25:19;;;;;;;12.65;9.27;;;6.10;99.90;;;;;;5096015;28;20048;-78
2022/01/24 05:27:45;;;;;;;11.70;8.50;;;6.10;99.90;;;;;;5096335;28;20101;-78
2022/01/24 05:30:12;;;;;;;11.30;8.80;;;6.10;99.90;;;;;;5095999;28;20450;-79
2022/01/24 05:32:37;;;;;;;11.63;9.05;;;6.10;99.90;;;;;;5095200;28;20052;-79
2022/01/24 05:35:04;;;;;;;11.93;8.63;;;6.10;99.90;;;;;;5096134;28;20040;-78
2022/01/24 05:37:30;;;;;;;11.27;8.80;;;6.10;99.90;;;;;;5095827;28;20051;-79
2022/01/24 05:39:55;;;;;;;11.57;9.15;;;6.10;99.90;;;;;;5095235;28;20048;-79
2022/01/24 05:42:21;;;;;;;11.30;8.20;;;6.10;99.90;;;;;;5094334;28;20052;-79
2022/01/24 05:44:49;;;;;;;12.63;8.98;;;6.10;99.90;;;;;;5094955;28;20062;-79
2022/01/24 05:47:15;;;;;;;12.25;8.50;;;6.10;99.90;;;;;;5094440;28;20036;-79
2022/01/24 05:49:41;;;;;;;12.98;9.05;;;6.00;99.90;;;;;;5095858;28;20134;-79
2022/01/24 05:52:09;;;;;;;12.40;9.10;;;6.00;99.90;;;;;;5094609;28;20130;-79
2022/01/24 05:54:39;;;;;;;12.55;9.18;;;6.00;99.90;;;;;;5095415;28;20055;-79
2022/01/24 05:57:06;;;;;;;12.43;8.73;;;6.00;99.90;;;;;;5093629;28;20055;-78
2022/01/24 05:59:33;;;;;;;11.27;8.50;;;6.00;99.90;;;;;;5095447;28;20044;-78
2022/01/24 06:01:59;;;;;;;12.70;9.27;;;6.00;99.90;;;;;;5095891;28;20051;-78
2022/01/24 06:04:25;;;;;;;13.55;9.30;;;6.00;99.90;;;;;;5077565;28;20066;-79
2022/01/24 06:06:50;;;;;;;11.73;8.83;;;6.00;99.90;;;;;;5095549;28;20048;-78
2022/01/24 06:09:16;;;;;;;12.07;8.43;;;6.00;99.90;;;;;;5094247;28;20040;-79
2022/01/24 06:11:43;;;;;;;12.63;9.40;;;6.10;99.90;;;;;;5094440;28;20499;-78
2022/01/24 06:14:09;;;;;;;11.35;9.05;;;6.00;99.90;;;;;;5094250;28;20055;-78
2022/01/24 06:16:35;;;;;;;13.27;9.50;;;6.00;99.90;;;;;;5094148;28;20048;-78
2022/01/24 06:19:00;;;;;;;16.53;10.13;;;6.00;99.90;;;;;;5094157;28;20350;-78
2022/01/24 06:21:26;;;;;;;13.23;9.23;;;6.00;99.90;;;;;;5095028;28;20044;-79
2022/01/24 06:23:52;;;;;;;14.23;10.30;;;6.00;99.90;;;;;;5094048;28;20102;-78
2022/01/24 06:26:18;;;;;;;13.97;9.43;;;6.00;99.90;;;;;;5094550;28;20040;-79
2022/01/24 06:28:43;;;;;;;12.60;9.60;;;6.00;99.90;;;;;;5095094;28;20050;-78
2022/01/24 06:31:09;;;;;;;13.57;9.67;;;6.00;99.90;;;;;;5093947;28;20050;-78
2022/01/24 06:33:35;;;;;;;13.40;10.17;;;6.00;99.90;;;;;;5093657;28;20091;-78
2022/01/24 06:36:01;;;;;;;15.77;10.30;;;6.00;99.90;;;;;;5094959;28;20098;-78
2022/01/24 06:38:27;;;;;;;16.80;11.50;;;5.90;99.90;;;;;;5093767;28;20093;-78
2022/01/24 06:40:52;;;;;;;14.40;9.63;;;5.90;99.90;;;;;;5093840;28;20048;-79
2022/01/24 06:43:18;;;;;;;14.93;11.27;;;5.90;99.90;;;;;;5093083;28;20135;-84
2022/01/24 06:45:44;;;;;;;12.67;9.97;;;6.00;99.90;;;;;;5093979;28;20048;-79
2022/01/24 06:48:10;;;;;;;13.10;10.73;;;6.00;99.90;;;;;;5094897;28;20051;-78
2022/01/24 06:50:36;;;;;;;15.90;10.80;;;6.00;99.90;;;;;;5093617;28;20044;-78
2022/01/24 06:53:02;;;;;;;14.33;10.03;;;5.90;99.90;;;;;;5094758;28;20048;-77
2022/01/24 06:55:27;;;;;;;16.03;10.57;;;6.00;99.90;;;;;;5094435;28;20051;-79
2022/01/24 06:57:53;;;;;;;14.27;10.90;;;6.00;99.90;;;;;;5093462;28;20040;-79
2022/01/24 07:00:25;;;;;;;15.03;11.60;;;6.00;99.90;;;;;;5093496;28;20109;-79
2022/01/24 07:02:55;;;;;;;15.68;11.35;;;6.00;99.90;;;;;;5061428;28;20060;-79
2022/01/24 07:05:21;;;;;;;15.02;10.70;;;5.90;99.90;;;;;;5094408;28;20418;-85
2022/01/24 07:07:46;;;;;;;15.23;10.97;;;5.90;99.90;;;;;;5093144;28;20048;-79
2022/01/24 07:10:12;;;;;;;14.80;11.27;;;5.90;99.90;;;;;;5094401;28;20036;-79
2022/01/24 07:12:38;;;;;;;15.47;11.53;;;6.00;99.90;;;;;;5094006;28;20101;-80
2022/01/24 07:15:09;;;;;;;15.30;11.83;;;5.90;99.90;;;;;;5093219;28;20086;-79
2022/01/24 07:17:59;;;;;;;14.43;10.75;;;6.00;99.90;;;;;;5094002;28;20074;-80
2022/01/24 07:20:20;;;;;;;;;;;6.00;99.90;;;;;;5094543;28;20052;-80
2022/01/24 07:22:46;;;;;;;15.53;11.60;;;6.00;99.90;;;;;;5093572;28;19927;-79
2022/01/24 07:25:12;;;;;;;16.27;11.00;;;5.90;99.90;;;;;;5093121;28;20125;-79
2022/01/24 07:27:38;;;;;;;15.00;11.23;;;6.00;99.90;;;;;;5092829;28;20484;-80
2022/01/24 07:30:04;;;;;;;16.53;11.80;;;6.00;99.90;;;;;;5094122;28;20476;-80
2022/01/24 07:32:31;;;;;;;14.02;11.02;;;5.90;99.90;;;;;;5092758;28;20101;-79
2022/01/24 07:34:58;;;;;;;14.57;11.45;;;6.00;99.90;;;;;;5093848;28;20097;-79
2022/01/24 07:37:25;;;;;;;16.42;11.65;;;5.90;99.90;;;;;;5092943;28;20052;-79
2022/01/24 07:39:53;;;;;;;15.60;11.15;;;5.90;99.90;;;;;;5093923;28;20055;-79
2022/01/24 07:42:50;;;;;;;14.75;11.60;;;5.90;99.90;;;;;;5093659;28;20056;-79
2022/01/24 07:45:15;;;;;;;21.85;12.27;;;5.90;99.90;;;;;;5093756;28;20048;-79
2022/01/24 07:47:40;;;;;;;18.35;13.02;;;6.00;99.90;;;;;;5092342;28;20048;-79
2022/01/24 07:50:07;;;;;;;18.80;13.50;;;5.90;99.90;;;;;;5092473;28;20050;-79
2022/01/24 07:52:32;;;;;;;15.68;12.32;;;6.00;99.90;;;;;;5093276;28;20048;-78
2022/01/24 07:54:58;;;;;;;16.83;13.70;;;6.00;99.90;;;;;;5092436;28;20369;-79
2022/01/24 07:57:24;;;;;;;18.23;13.83;;;6.00;99.90;;;;;;5093276;28;20122;-80
2022/01/24 07:59:50;;;;;;;16.60;11.87;;;6.00;99.90;;;;;;5093226;28;20044;-81
2022/01/24 08:02:16;;;;;;;17.65;13.25;;;6.00;99.90;;;;;;5093597;28;20051;-78
2022/01/24 08:04:41;;;;;;;18.30;14.53;;;6.00;99.90;;;;;;5093483;28;20036;-79
2022/01/24 08:07:07;;;;;;;19.80;14.53;;;6.00;99.90;;;;;;5093617;28;20044;-78
2022/01/24 08:09:33;;;;;;;20.00;14.90;;;6.00;99.90;;;;;;5093096;28;20052;-79
2022/01/24 08:11:58;;;;;;;19.40;15.13;;;6.00;99.90;;;;;;5075543;28;20083;-79
2022/01/24 08:14:24;;;;;;;19.63;15.27;;;6.00;99.90;;;;;;5092156;28;20036;-79
2022/01/24 08:16:50;;;;;;;19.87;15.50;;;6.00;99.90;;;;;;5093114;28;20427;-79
2022/01/24 08:19:15;;;;;;;20.07;15.10;;;6.00;99.90;;;;;;5075115;28;20391;-79
2022/01/24 08:21:43;;;;;;;21.60;16.63;;;6.00;99.90;;;;;;5092947;28;20126;-79
2022/01/24 08:24:09;;;;;;;21.23;15.65;;;6.00;99.90;;;;;;5075551;28;20066;-79
2022/01/24 08:26:35;;;;;;;21.57;17.23;;;6.00;99.90;;;;;;5092922;28;20472;-79
2022/01/24 08:29:00;;;;;;;22.90;17.60;;;6.00;99.90;;;;;;5093395;28;20056;-80
2022/01/24 08:31:26;;;;;;;23.10;16.67;;;6.10;99.90;;;;;;5092188;28;20290;-79
2022/01/24 08:33:52;;;;;;;20.70;16.17;;;6.00;99.90;;;;;;5074877;28;20533;-80
2022/01/24 08:36:17;;;;;;;20.97;16.70;;;6.10;99.90;;;;;;5093214;28;20088;-79
2022/01/24 08:38:46;;;;;;;20.17;15.67;;;6.10;99.90;;;;;;5091530;28;20047;-80
2022/01/24 08:41:20;;;;;;;21.70;17.02;;;6.10;99.90;;;;;;5093062;28;20107;-78
2022/01/24 08:46:15;;;;;;;22.75;17.63;;;6.10;99.90;;;;;;5092863;28;20052;-80
2022/01/24 08:48:42;;;;;;;19.80;16.65;;;6.10;99.90;;;;;;5092607;28;20396;-81
2022/01/24 08:51:08;;;;;;;20.73;16.58;;;6.10;99.90;;;;;;5091949;28;20051;-80
2022/01/24 08:53:34;;;;;;;21.47;16.03;;;6.10;99.90;;;;;;5092675;28;20044;-85
2022/01/24 08:56:04;;;;;;;19.00;15.57;;;6.10;99.90;;;;;;5092840;28;20083;-81
2022/01/24 08:58:30;;;;;;;20.98;16.95;;;6.10;99.90;;;;;;5092849;28;20079;-81
2022/01/24 09:00:56;;;;;;;18.70;16.63;;;6.10;99.90;;;;;;5092543;28;20134;-80
2022/01/24 09:03:22;;;;;;;21.27;16.80;;;6.10;99.90;;;;;;5091789;28;20044;-81
2022/01/24 09:05:49;;;;;;;20.67;17.63;;;6.10;99.90;;;;;;5092490;28;20106;-81
2022/01/24 09:08:15;;;;;;;17.85;15.32;;;6.10;99.90;;;;;;5092758;28;20056;-80
2022/01/24 09:10:43;;;;;;;19.38;15.82;;;6.10;99.90;;;;;;5092428;28;20450;-80
2022/01/24 09:13:09;;;;;;;20.13;16.17;;;6.10;99.90;;;;;;5091755;28;20075;-79
2022/01/24 09:15:35;;;;;;;20.60;16.73;;;6.10;99.90;;;;;;5092708;28;20139;-78
2022/01/24 09:18:02;;;;;;;24.15;17.77;;;6.20;99.90;;;;;;5092352;28;20138;-81
2022/01/24 09:20:28;;;;;;;19.95;16.55;;;6.20;99.90;;;;;;5092658;28;20044;-80
2022/01/24 09:22:54;;;;;;;23.70;17.10;;;6.20;99.90;;;;;;5092268;28;20044;-81
2022/01/24 09:25:20;;;;;;;21.13;16.57;;;6.20;99.90;;;;;;5092577;28;20044;-79
2022/01/24 09:27:47;;;;;;;22.17;17.38;;;6.20;99.90;;;;;;5092208;28;20048;-81
2022/01/24 09:30:16;;;;;;;24.27;17.75;;;6.20;99.90;;;;;;5092589;28;20052;-81
2022/01/24 09:32:42;;;;;;;22.45;17.63;;;6.20;99.90;;;;;;5095930;28;20052;-79
2022/01/24 09:35:10;;;;;;;20.65;16.63;;;6.20;99.90;;;;;;5096197;28;20047;-79
2022/01/24 09:37:36;;;;;;;20.45;17.23;;;6.20;99.90;;;;;;5096178;28;20051;-79
2022/01/24 09:40:04;;;;;;;21.08;17.98;;;6.20;99.90;;;;;;5095810;28;20108;-79
2022/01/24 09:42:30;;;;;;;20.55;17.33;;;6.20;99.90;;;;;;5094677;28;20055;-78
2022/01/24 09:44:56;;;;;;;19.40;16.52;;;6.20;99.90;;;;;;5095735;28;20051;-80
2022/01/24 09:47:22;;;;;;;21.70;17.23;;;6.30;99.90;;;;;;5095097;28;20048;-80
2022/01/24 09:49:49;;;;;;;22.63;17.97;;;6.20;99.90;;;;;;5095765;28;20051;-79
2022/01/24 09:52:15;;;;;;;21.73;17.65;;;6.30;99.90;;;;;;5095908;28;20040;-79
2022/01/24 09:54:41;;;;;;;21.58;17.60;;;6.30;99.90;;;;;;5095815;28;20047;-79
2022/01/24 09:57:07;;;;;;;23.73;17.40;;;6.30;99.90;;;;;;5094756;28;20447;-79
2022/01/24 09:59:33;;;;;;;21.65;17.45;;;6.30;99.90;;;;;;5094809;28;20502;-78
2022/01/24 10:02:00;;;;;;;27.27;17.80;;;6.30;99.90;;;;;;5077626;28;20119;-79
2022/01/24 10:04:26;;;;;;;27.17;17.75;;;6.30;99.90;;;;;;5095757;28;20048;-78
2022/01/24 10:07:08;;;;;;;24.40;17.67;;;6.30;99.90;;;;;;5095223;28;20109;-78
2022/01/24 10:09:37;;;;;;;23.42;18.48;;;6.30;99.90;;;;;;5095910;28;20122;-79
2022/01/24 10:12:08;;;;;;;21.75;18.55;;;6.30;99.90;;;;;;5095311;28;20051;-81
2022/01/24 10:17:21;;;;;;;23.17;17.80;;;6.30;99.90;;;;;;5095555;28;20113;-85
2022/01/24 10:19:47;;;;;;;24.57;17.83;;;6.30;99.90;;;;;;5095043;28;20051;-86
2022/01/24 10:22:12;;;;;;;24.97;19.13;;;6.40;99.90;;;;;;5095295;28;20048;-83
2022/01/24 10:24:44;;;;;;;23.67;18.10;;;6.40;99.90;;;;;;5077399;28;20040;-83
2022/01/24 10:27:13;;;;;;;24.55;18.42;;;6.40;99.90;;;;;;5093967;28;20043;-84
2022/01/24 10:29:51;;;;;;;24.58;19.23;;;6.40;99.90;;;;;;5094270;28;20051;-86
2022/01/24 10:32:51;;;;;;;30.40;21.45;;;6.40;99.90;;;;;;5093855;28;20047;-86
2022/01/24 10:35:36;;;;;;;28.98;22.45;;;6.40;99.90;;;;;;5082494;28;20063;-84
2022/01/24 10:38:42;;;;;;;30.70;23.00;;;6.40;99.90;;;;;;5094788;28;20114;-78
2022/01/24 10:43:48;;;;;;;31.48;23.75;;;6.40;99.90;;;;;;5095026;28;20067;-77
2022/01/24 10:46:14;;;;;;;33.58;23.63;;;6.40;99.90;;;;;;5093816;28;20497;-79
2022/01/24 10:48:43;;;;;;;29.60;21.92;;;6.40;99.90;;;;;;5094739;28;20040;-79
2022/01/24 10:51:17;;;;;;;31.30;24.23;;;6.40;99.90;;;;;;5094392;28;20495;-79
2022/01/24 10:53:55;;;;;;;29.70;22.85;;;6.40;99.90;;;;;;5094716;28;20047;-79
2022/01/24 10:56:35;;;;;;;30.90;24.13;;;6.50;99.90;;;;;;5094664;28;20102;-79
2022/01/24 10:59:15;;;;;;;30.50;23.40;;;6.50;99.90;;;;;;5094357;28;20274;-78
2022/01/24 11:01:44;;;;;;;30.92;23.65;;;6.50;99.90;;;;;;5094550;28;20091;-78
2022/01/24 11:04:15;;;;;;;31.40;22.38;;;6.50;99.90;;;;;;5094109;28;20151;-79
2022/01/24 11:06:44;;;;;;;30.38;22.45;;;6.50;99.90;;;;;;5094646;28;20074;-79
2022/01/24 11:09:25;;;;;;;29.95;22.85;;;6.50;99.90;;;;;;5094094;28;20423;-79
2022/01/24 11:11:57;;;;;;;30.48;22.50;;;6.50;99.90;;;;;;5094389;28;20048;-79
2022/01/24 11:14:25;;;;;;;28.83;22.08;;;6.50;99.90;;;;;;5093870;28;20550;-79
2022/01/24 11:16:52;;;;;;;30.35;22.02;;;6.60;99.90;;;;;;5094184;28;20056;-78
2022/01/24 11:19:35;;;;;;;29.45;22.15;;;6.60;99.90;;;;;;5093202;28;20055;-79
2022/01/24 11:22:05;;;;;;;25.25;20.75;;;6.50;99.90;;;;;;5093966;28;20077;-78
2022/01/24 11:27:07;;;;;;;28.40;21.50;;;6.60;99.90;;;;;;5093838;28;20075;-79
2022/01/24 11:29:35;;;;;;;30.83;22.30;;;6.60;99.90;;;;;;5093972;28;20511;-78
2022/01/24 11:32:07;;;;;;;28.30;21.75;;;6.60;99.90;;;;;;5093779;28;20060;-79
2022/01/24 11:34:38;;;;;;;28.67;21.70;;;6.60;99.90;;;;;;5093838;28;20075;-78
2022/01/24 11:37:05;;;;;;;30.30;21.85;;;6.60;99.90;;;;;;5093577;28;20058;-79
2022/01/24 11:39:32;;;;;;;27.52;21.83;;;6.70;99.90;;;;;;5093790;28;20060;-78
2022/01/24 11:41:57;;;;;;;32.58;22.60;;;6.60;99.90;;;;;;5093346;28;20048;-79
2022/01/24 11:44:25;;;;;;;32.47;22.80;;;6.70;99.90;;;;;;5093770;28;20488;-79
2022/01/24 11:46:58;;;;;;;29.80;21.43;;;6.70;99.90;;;;;;5093694;28;20134;-78
2022/01/24 11:49:27;;;;;;;26.00;19.13;;;6.70;99.90;;;;;;5093647;28;20314;-79
2022/01/24 11:52:13;;;;;;;26.88;19.10;;;6.60;99.90;;;;;;5093588;28;20638;-78
2022/01/24 11:57:26;;;;;;;;;;;6.70;99.90;;;;;;5093724;28;20101;-78
2022/01/24 12:00:16;;;;;;;25.20;18.52;;;6.70;99.90;;;;;;5093575;28;19970;-78
2022/01/24 12:02:49;;;;;;;25.75;19.90;;;6.70;99.90;;;;;;5089570;28;20074;-79
2022/01/24 12:05:23;;;;;;;23.50;17.98;;;6.70;99.90;;;;;;5092833;28;20044;-80
2022/01/24 12:07:51;;;;;;;24.25;18.42;;;6.70;99.90;;;;;;5093359;28;20040;-78
2022/01/24 12:10:23;;;;;;;25.27;18.55;;;6.70;99.90;;;;;;5093011;28;20048;-80
2022/01/24 12:13:03;;;;;;;25.73;19.27;;;6.70;99.90;;;;;;5093294;28;20503;-77
2022/01/24 12:15:37;;;;;;;23.90;18.80;;;6.70;99.90;;;;;;5093344;28;20055;-77
2022/01/24 12:18:06;;;;;;;23.48;18.30;;;6.80;99.90;;;;;;5092929;28;20278;-78
2022/01/24 12:20:31;;;;;;;24.25;18.83;;;6.80;99.90;;;;;;5093179;28;20522;-77
2022/01/24 12:23:21;;;;;;;26.13;18.87;;;6.80;99.90;;;;;;5093146;28;20087;-76
2022/01/24 12:26:07;;;;;;;25.40;18.98;;;6.70;99.90;;;;;;5082621;28;20061;-77
2022/01/24 12:28:44;;;;;;;29.48;18.83;;;6.70;99.90;;;;;;5092999;28;20492;-78
2022/01/24 12:31:17;;;;;;;24.80;18.38;;;6.70;99.90;;;;;;5092936;28;20119;-76
2022/01/24 12:33:50;;;;;;;27.60;18.37;;;6.80;99.90;;;;;;5093002;28;20036;-78
2022/01/24 12:36:37;;;;;;;25.90;19.52;;;6.80;99.90;;;;;;5091726;28;20290;-78
2022/01/24 12:39:17;;;;;;;23.83;18.13;;;6.70;99.90;;;;;;5092591;28;20404;-79
2022/01/24 12:41:50;;;;;;;28.33;19.73;;;6.80;99.90;;;;;;5093199;28;20047;-80
2022/01/24 12:47:34;;;;;;;29.02;19.48;;;6.80;99.90;;;;;;5092704;28;20056;-80
2022/01/24 12:50:00;;;;;;;26.00;18.95;;;6.70;99.90;;;;;;5087937;28;20056;-85
2022/01/24 12:52:29;;;;;;;24.70;18.77;;;6.70;99.90;;;;;;5092530;28;20046;-87
2022/01/24 12:54:59;;;;;;;26.77;20.60;;;6.80;99.90;;;;;;5091651;28;20405;-81
2022/01/24 12:57:29;;;;;;;26.23;19.48;;;6.80;99.90;;;;;;5092474;28;20097;-84
2022/01/24 13:00:24;;;;;;;25.17;19.30;;;6.80;99.90;;;;;;5091630;28;20044;-83
2022/01/24 13:02:50;;;;;;;28.17;20.40;;;6.80;99.90;;;;;;5087676;28;20458;-83
2022/01/24 13:05:21;;;;;;;25.37;19.10;;;6.80;99.90;;;;;;5059157;28;20043;-85
2022/01/24 13:07:56;;;;;;;25.90;19.48;;;6.80;99.90;;;;;;5078811;28;20495;-82
2022/01/24 13:10:24;;;;;;;26.95;20.23;;;6.80;99.90;;;;;;5095237;28;20043;-83
2022/01/24 13:13:05;;;;;;;28.90;20.23;;;6.80;99.90;;;;;;5096525;28;20506;-84
2022/01/24 13:23:34;;;;;;;27.23;19.67;;;6.80;99.90;;;;;;5096423;28;20361;-76
2022/01/24 13:26:00;;;;;;;28.77;20.90;;;6.80;99.90;;;;;;5096359;28;20282;-74
2022/01/24 13:28:26;;;;;;;25.03;18.87;;;6.80;99.90;;;;;;5096091;28;20363;-74
2022/01/24 13:31:00;;;;;;;29.00;20.80;;;6.70;99.90;;;;;;5096249;28;20048;-74
2022/01/24 13:33:26;;;;;;;29.92;20.88;;;6.80;99.90;;;;;;5095991;28;20090;-74
2022/01/24 13:36:07;;;;;;;30.10;21.00;;;6.70;99.90;;;;;;5096235;28;20047;-74
2022/01/24 13:38:37;;;;;;;29.47;20.43;;;6.70;99.90;;;;;;5094943;28;20278;-75
2022/01/24 13:41:21;;;;;;;28.83;21.13;;;6.70;99.90;;;;;;5096141;28;20340;-73
2022/01/24 13:43:53;;;;;;;25.23;20.10;;;6.70;99.90;;;;;;5094537;28;20430;-74
2022/01/24 13:46:23;;;;;;;27.63;20.17;;;6.70;99.90;;;;;;5095788;28;20335;-75
2022/01/24 13:48:50;;;;;;;26.40;19.20;;;6.70;99.90;;;;;;5078149;28;20305;-74
2022/01/24 13:51:22;;;;;;;28.30;20.38;;;6.70;99.90;;;;;;5095680;28;20391;-75
2022/01/24 13:53:57;;;;;;;25.33;20.50;;;6.70;99.90;;;;;;5095846;28;20533;-74
2022/01/24 13:56:35;;;;;;;27.10;19.87;;;6.70;99.90;;;;;;5086969;28;20074;-82
2022/01/24 13:59:15;;;;;;;29.65;20.13;;;6.70;99.90;;;;;;5084132;28;20274;-75
2022/01/24 14:01:56;;;;;;;27.47;19.77;;;6.70;99.90;;;;;;5088745;28;20445;-76
2022/01/24 14:04:36;;;;;;;26.40;20.63;;;6.70;99.90;;;;;;5085002;28;20848;-80
2022/01/24 14:07:07;;;;;;;26.53;18.97;;;6.70;99.90;;;;;;5087317;28;20099;-78
2022/01/24 14:09:39;;;;;;;28.85;21.05;;;6.70;99.90;;;;;;5085364;28;20290;-77
2022/01/24 14:12:08;;;;;;;29.92;21.58;;;6.60;99.90;;;;;;5085400;28;20408;-72
2022/01/24 14:14:42;;;;;;;28.87;19.80;;;6.70;99.90;;;;;;5086778;28;20619;-72
2022/01/24 14:19:42;;;;;;;26.23;19.13;;;6.60;99.90;;;;;;5088576;28;20340;-71
2022/01/24 14:22:14;;;;;;;28.97;20.50;;;6.60;99.90;;;;;;5081831;28;20071;-72
2022/01/24 14:24:57;;;;;;;30.55;20.55;;;6.60;99.90;;;;;;5089445;28;20314;-74
2022/01/24 14:27:43;;;;;;;27.55;19.10;;;6.60;99.90;;;;;;5083506;28;20048;-81
2022/01/24 14:30:13;;;;;;;30.73;21.92;;;6.50;99.90;;;;;;5088049;28;20052;-75
2022/01/24 14:33:09;;;;;;;27.53;20.37;;;6.60;99.90;;;;;;5084562;28;20036;-75
2022/01/24 14:35:54;;;;;;;31.30;21.10;;;6.60;99.90;;;;;;5087898;28;20389;-77
2022/01/24 14:38:42;;;;;;;28.02;20.55;;;6.50;99.90;;;;;;5087481;28;20135;-74
2022/01/24 14:41:14;;;;;;;25.90;19.73;;;6.50;99.90;;;;;;5087813;28;20663;-73
2022/01/24 14:46:29;;;;;;;28.10;20.55;;;6.50;99.90;;;;;;5088533;28;20286;-80
2022/01/24 14:49:02;;;;;;;30.00;21.98;;;6.50;99.90;;;;;;5088814;28;20487;-75
2022/01/24 14:51:31;;;;;;;26.73;21.00;;;6.50;99.90;;;;;;5087598;28;20116;-76
2022/01/24 14:54:03;;;;;;;29.50;22.10;;;6.50;99.90;;;;;;5088185;28;20036;-75
2022/01/24 14:56:29;;;;;;;31.10;21.65;;;6.50;99.90;;;;;;5088153;28;20052;-75
2022/01/24 14:58:55;;;;;;;29.65;21.80;;;6.50;99.90;;;;;;5088395;28;20036;-74
2022/01/24 15:01:21;;;;;;;28.30;21.00;;;6.40;99.90;;;;;;5087330;28;20051;-74
2022/01/24 15:03:49;;;;;;;31.00;21.95;;;6.50;99.90;;;;;;5087838;28;20974;-75
2022/01/24 15:06:16;;;;;;;28.90;22.13;;;6.50;99.90;;;;;;5087034;28;20051;-79